createdAt,value
2022-08-17T00:01:30.076Z,85.86
2022-08-17T00:04:12.410Z,85.72
2022-08-17T00:06:43.672Z,85.79
2022-08-17T00:09:12.845Z,85.77
2022-08-17T00:12:34.650Z,85.78
2022-08-17T00:14:32.194Z,85.74
2022-08-17T00:16:59.007Z,85.74
2022-08-17T00:19:26.043Z,85.74
2022-08-17T00:22:31.047Z,85.63
2022-08-17T00:24:40.690Z,85.83
2022-08-17T00:27:08.160Z,85.79
2022-08-17T00:29:34.916Z,85.91
2022-08-17T00:33:23.148Z,85.80
2022-08-17T00:34:49.121Z,85.90
2022-08-17T00:37:15.864Z,86.18
2022-08-17T00:39:42.621Z,86.39
2022-08-17T00:42:17.484Z,86.58
2022-08-17T00:44:44.709Z,86.87
2022-08-17T00:47:11.478Z,87.10
2022-08-17T00:49:38.224Z,87.25
2022-08-17T00:52:11.886Z,87.38
2022-08-17T00:54:42.035Z,87.55
2022-08-17T00:57:17.685Z,87.71
2022-08-17T00:59:47.230Z,87.78
2022-08-17T01:02:29.913Z,87.78
2022-08-17T01:05:01.196Z,87.80
2022-08-17T01:07:27.992Z,87.79
2022-08-17T01:09:54.756Z,87.77
2022-08-17T01:12:21.640Z,87.75
2022-08-17T01:14:48.592Z,87.68
2022-08-17T01:17:15.344Z,87.57
2022-08-17T01:19:42.264Z,87.56
2022-08-17T01:22:09.016Z,87.50
2022-08-17T01:24:36.422Z,87.43
2022-08-17T01:27:03.834Z,87.31
2022-08-17T01:29:38.715Z,87.38
2022-08-17T01:32:07.464Z,87.38
2022-08-17T01:34:42.897Z,87.32
2022-08-17T01:37:12.250Z,87.35
2022-08-17T01:39:45.712Z,87.30
2022-08-17T01:42:20.931Z,87.39
2022-08-17T01:44:47.792Z,87.49
2022-08-17T01:47:15.006Z,87.44
2022-08-17T01:49:41.724Z,87.32
2022-08-17T01:52:10.107Z,87.33
2022-08-17T01:54:38.034Z,87.38
2022-08-17T01:57:06.070Z,87.29
2022-08-17T01:59:33.762Z,87.14
2022-08-17T02:02:00.576Z,87.16
2022-08-17T02:04:27.336Z,87.19
2022-08-17T02:06:54.650Z,87.30
2022-08-17T02:09:27.178Z,87.22
2022-08-17T02:11:59.437Z,87.28
2022-08-17T02:14:26.329Z,87.46
2022-08-17T02:16:53.422Z,87.30
2022-08-17T02:19:20.376Z,87.33
2022-08-17T02:21:49.070Z,87.44
2022-08-17T02:25:00.094Z,87.38
2022-08-17T02:27:09.259Z,87.42
2022-08-17T02:29:36.049Z,87.37
2022-08-17T02:32:03.294Z,87.30
2022-08-17T02:34:30.110Z,87.31
2022-08-17T02:36:56.830Z,87.42
2022-08-17T02:39:23.612Z,87.49
2022-08-17T02:41:50.493Z,87.30
2022-08-17T02:44:39.256Z,87.32
2022-08-17T02:47:04.394Z,87.29
2022-08-17T02:49:31.181Z,87.39
2022-08-17T02:51:58.496Z,87.29
2022-08-17T02:54:40.591Z,87.47
2022-08-17T02:57:09.973Z,87.55
2022-08-17T02:59:38.055Z,87.69
2022-08-17T03:02:06.668Z,87.72
2022-08-17T03:04:35.300Z,87.89
2022-08-17T03:07:02.979Z,87.82
2022-08-17T03:09:30.036Z,88.00
2022-08-17T03:12:08.442Z,87.99
2022-08-17T03:14:42.008Z,88.13
2022-08-17T03:17:17.267Z,88.13
2022-08-17T03:19:44.608Z,88.17
2022-08-17T03:22:36.294Z,88.23
2022-08-17T03:24:58.583Z,88.27
2022-08-17T03:27:25.518Z,88.33
2022-08-17T03:29:52.245Z,88.25
2022-08-17T03:32:20.726Z,88.26
2022-08-17T03:34:47.645Z,88.28
2022-08-17T03:37:15.396Z,88.41
2022-08-17T03:39:42.885Z,88.55
2022-08-17T03:42:31.456Z,88.32
2022-08-17T03:44:59.912Z,88.31
2022-08-17T03:47:45.466Z,88.12
2022-08-17T03:50:31.091Z,87.97
2022-08-17T03:53:16.596Z,87.99
2022-08-17T03:56:02.067Z,87.90
2022-08-17T03:58:28.803Z,87.71
2022-08-17T04:00:55.639Z,87.67
2022-08-17T04:03:22.343Z,87.66
2022-08-17T04:05:49.047Z,87.70
2022-08-17T04:08:15.778Z,87.60
2022-08-17T04:10:45.029Z,87.68
2022-08-17T04:13:12.178Z,87.65
2022-08-17T04:15:38.891Z,87.53
2022-08-17T04:18:07.458Z,87.60
2022-08-17T04:20:34.569Z,87.33
2022-08-17T04:23:12.479Z,87.35
2022-08-17T04:25:41.804Z,87.15
2022-08-17T04:28:16.047Z,87.06
2022-08-17T04:30:45.153Z,86.70
2022-08-17T04:33:25.582Z,86.55
2022-08-17T04:35:54.550Z,86.80
2022-08-17T04:38:24.424Z,86.24
2022-08-17T04:41:09.743Z,85.80
2022-08-17T04:44:39.277Z,85.47
2022-08-17T04:47:07.222Z,84.97
2022-08-17T04:49:39.712Z,84.81
2022-08-17T04:52:06.480Z,84.33
2022-08-17T04:54:33.215Z,84.38
2022-08-17T04:56:59.961Z,84.00
2022-08-17T04:59:26.704Z,83.76
2022-08-17T05:01:53.399Z,83.31
2022-08-17T05:04:33.765Z,82.77
2022-08-17T05:07:01.465Z,81.91
2022-08-17T05:09:29.051Z,80.96
2022-08-17T05:11:56.205Z,80.20
2022-08-17T05:14:33.752Z,79.20
2022-08-17T05:17:01.375Z,78.02
2022-08-17T05:19:28.662Z,77.32
2022-08-17T05:21:55.384Z,76.88
2022-08-17T05:24:38.678Z,76.02
2022-08-17T05:27:08.806Z,74.79
2022-08-17T05:29:36.460Z,74.00
2022-08-17T05:32:38.224Z,73.06
2022-08-17T05:35:00.541Z,72.08
2022-08-17T05:37:27.550Z,71.67
2022-08-17T05:39:54.544Z,71.17
2022-08-17T05:42:21.499Z,70.47
2022-08-17T05:44:48.551Z,70.27
2022-08-17T05:47:15.279Z,69.95
2022-08-17T05:49:42.035Z,69.18
2022-08-17T05:52:30.536Z,68.79
2022-08-17T05:55:33.169Z,68.82
2022-08-17T05:58:18.510Z,69.16
2022-08-17T06:01:03.472Z,68.97
2022-08-17T06:03:52.824Z,68.19
2022-08-17T06:06:37.838Z,67.90
2022-08-17T06:09:10.553Z,67.94
2022-08-17T06:11:45.684Z,67.36
2022-08-17T06:14:27.219Z,67.59
2022-08-17T06:17:01.829Z,67.14
2022-08-17T06:19:55.816Z,67.33
2022-08-17T06:22:29.818Z,66.64
2022-08-17T06:25:01.043Z,65.95
2022-08-17T06:27:47.999Z,66.43
2022-08-17T06:30:28.674Z,66.23
2022-08-17T06:33:21.980Z,66.62
2022-08-17T06:36:33.345Z,66.33
2022-08-17T06:39:20.131Z,66.69
2022-08-17T06:42:05.699Z,66.36
2022-08-17T06:44:49.732Z,66.45
2022-08-17T06:47:28.503Z,66.52
2022-08-17T06:50:15.433Z,66.29
2022-08-17T06:52:48.794Z,66.30
2022-08-17T06:55:44.212Z,66.63
2022-08-17T06:58:15.838Z,66.37
2022-08-17T07:00:44.624Z,66.38
2022-08-17T07:03:14.057Z,66.18
2022-08-17T07:06:03.727Z,66.01
2022-08-17T07:08:51.365Z,65.70
2022-08-17T07:11:21.111Z,65.41
2022-08-17T07:14:29.352Z,65.32
2022-08-17T07:16:56.795Z,64.92
2022-08-17T07:19:25.577Z,64.90
2022-08-17T07:21:55.120Z,64.63
2022-08-17T07:24:43.334Z,64.10
2022-08-17T07:27:22.871Z,63.85
2022-08-17T07:30:23.267Z,63.08
2022-08-17T07:32:57.368Z,63.44
2022-08-17T07:35:31.376Z,62.78
2022-08-17T07:38:25.186Z,62.53
2022-08-17T07:41:02.644Z,61.82
2022-08-17T07:43:40.323Z,61.54
2022-08-17T07:46:59.006Z,61.35
2022-08-17T07:49:40.953Z,60.35
2022-08-17T07:52:48.422Z,59.90
2022-08-17T07:54:56.963Z,60.71
2022-08-17T07:57:30.566Z,60.35
2022-08-17T08:00:01.102Z,59.82
2022-08-17T08:02:38.716Z,59.46
2022-08-17T08:05:13.035Z,58.43
2022-08-17T08:08:17.575Z,58.84
2022-08-17T08:10:45.315Z,58.60
2022-08-17T08:13:14.612Z,58.33
2022-08-17T08:15:54.275Z,58.56
2022-08-17T08:18:55.015Z,58.66
2022-08-17T08:21:47.217Z,57.85
2022-08-17T08:24:19.647Z,58.49
2022-08-17T08:27:28.043Z,59.27
2022-08-17T08:29:55.160Z,59.40
2022-08-17T08:32:46.526Z,59.28
2022-08-17T08:35:14.323Z,59.44
2022-08-17T08:37:46.925Z,59.85
2022-08-17T08:40:25.504Z,60.11
2022-08-17T08:43:07.473Z,59.83
2022-08-17T08:45:42.419Z,59.87
2022-08-17T08:48:53.808Z,59.47
2022-08-17T08:51:51.868Z,59.08
2022-08-17T08:54:37.157Z,58.70
2022-08-17T08:57:26.454Z,58.24
2022-08-17T09:00:01.705Z,58.29
2022-08-17T09:02:51.622Z,58.28
2022-08-17T09:05:42.472Z,58.78
2022-08-17T09:08:27.222Z,58.95
2022-08-17T09:12:02.140Z,58.84
2022-08-17T09:14:31.338Z,59.22
2022-08-17T09:17:18.536Z,59.00
2022-08-17T09:19:51.234Z,58.81
2022-08-17T09:22:36.604Z,58.59
2022-08-17T09:25:17.469Z,59.03
2022-08-17T09:28:20.313Z,58.95
2022-08-17T09:30:49.988Z,57.67
2022-08-17T09:33:22.829Z,57.97
2022-08-17T09:35:53.862Z,58.62
2022-08-17T09:38:29.219Z,58.33
2022-08-17T09:41:09.971Z,58.31
2022-08-17T09:43:51.625Z,58.38
2022-08-17T09:46:22.165Z,58.23
2022-08-17T09:49:12.095Z,58.45
2022-08-17T09:51:42.173Z,58.56
2022-08-17T09:54:38.784Z,58.90
2022-08-17T09:57:31.049Z,58.98
2022-08-17T10:00:19.993Z,58.21
2022-08-17T10:03:00.545Z,58.17
2022-08-17T10:05:37.686Z,58.54
2022-08-17T10:08:25.772Z,58.37
2022-08-17T10:11:05.727Z,58.52
2022-08-17T10:14:01.803Z,58.56
2022-08-17T10:17:23.708Z,58.71
2022-08-17T10:19:57.583Z,58.22
2022-08-17T10:22:49.892Z,58.43
2022-08-17T10:25:53.965Z,58.55
2022-08-17T10:28:28.770Z,58.34
2022-08-17T10:31:16.614Z,58.23
2022-08-17T10:33:51.003Z,58.02
2022-08-17T10:36:23.088Z,57.77
2022-08-17T10:38:50.698Z,57.72
2022-08-17T10:41:31.503Z,57.65
2022-08-17T10:44:40.231Z,57.74
2022-08-17T10:46:57.643Z,58.27
2022-08-17T10:49:29.535Z,58.09
2022-08-17T10:52:35.427Z,57.97
2022-08-17T10:55:06.002Z,57.67
2022-08-17T10:57:33.938Z,57.98
2022-08-17T11:00:02.249Z,57.92
2022-08-17T11:02:38.664Z,57.95
2022-08-17T11:05:18.162Z,57.50
2022-08-17T11:08:19.018Z,57.56
2022-08-17T11:10:52.080Z,57.56
2022-08-17T11:14:14.003Z,57.82
2022-08-17T11:16:50.824Z,58.03
2022-08-17T11:19:26.428Z,57.91
2022-08-17T11:22:06.531Z,58.02
2022-08-17T11:24:37.754Z,58.37
2022-08-17T11:27:27.285Z,57.67
2022-08-17T11:30:02.497Z,58.17
2022-08-17T11:32:37.295Z,57.69
2022-08-17T11:35:21.995Z,57.40
2022-08-17T11:38:18.785Z,57.52
2022-08-17T11:41:03.686Z,57.60
2022-08-17T11:43:49.209Z,57.85
2022-08-17T11:46:54.774Z,58.24
2022-08-17T11:50:01.666Z,58.12
2022-08-17T11:52:36.563Z,58.54
2022-08-17T11:55:33.867Z,58.71
2022-08-17T11:58:01.762Z,58.81
2022-08-17T12:00:47.092Z,59.12
2022-08-17T12:03:32.357Z,58.95
2022-08-17T12:06:11.256Z,58.88
2022-08-17T12:08:43.397Z,59.01
2022-08-17T12:11:11.960Z,59.54
2022-08-17T12:13:44.651Z,59.29
2022-08-17T12:16:16.564Z,57.96
2022-08-17T12:18:59.310Z,57.85
2022-08-17T12:21:36.476Z,58.19
2022-08-17T12:24:05.297Z,58.64
2022-08-17T12:26:35.792Z,58.96
2022-08-17T12:29:18.504Z,59.12
2022-08-17T12:32:02.234Z,59.38
2022-08-17T12:34:36.058Z,58.94
2022-08-17T12:37:06.798Z,58.37
2022-08-17T12:39:34.014Z,58.28
2022-08-17T12:42:02.690Z,58.48
2022-08-17T12:44:34.988Z,58.70
2022-08-17T12:47:21.912Z,58.96
2022-08-17T12:49:53.439Z,58.23
2022-08-17T12:52:20.258Z,58.12
2022-08-17T12:55:00.070Z,57.94
2022-08-17T12:57:41.325Z,58.39
2022-08-17T13:00:10.816Z,58.58
2022-08-17T13:02:47.423Z,58.28
2022-08-17T13:05:20.878Z,58.09
2022-08-17T13:07:47.812Z,58.19
2022-08-17T13:10:28.665Z,58.49
2022-08-17T13:13:03.387Z,58.13
2022-08-17T13:15:35.252Z,57.55
2022-08-17T13:18:10.640Z,57.57
2022-08-17T13:20:37.368Z,57.98
2022-08-17T13:23:11.867Z,58.45
2022-08-17T13:25:39.152Z,58.32
2022-08-17T13:28:05.883Z,58.25
2022-08-17T13:30:33.577Z,57.83
2022-08-17T13:33:04.827Z,57.77
2022-08-17T13:35:47.127Z,57.60
2022-08-17T13:38:40.555Z,57.26
2022-08-17T13:41:07.574Z,57.29
2022-08-17T13:43:45.103Z,57.48
2022-08-17T13:46:22.749Z,57.42
2022-08-17T13:48:59.776Z,57.38
2022-08-17T13:51:31.645Z,57.21
2022-08-17T13:53:59.566Z,57.41
2022-08-17T13:57:02.608Z,56.88
2022-08-17T13:59:52.901Z,56.91
2022-08-17T14:02:21.030Z,56.97
2022-08-17T14:04:48.205Z,57.07
2022-08-17T14:07:16.078Z,56.88
2022-08-17T14:09:59.785Z,56.29
2022-08-17T14:12:28.496Z,55.95
2022-08-17T14:14:56.349Z,55.50
2022-08-17T14:17:23.918Z,54.86
2022-08-17T14:19:51.061Z,55.10
2022-08-17T14:22:31.872Z,55.00
2022-08-17T14:24:59.256Z,55.19
2022-08-17T14:27:28.203Z,54.98
2022-08-17T14:29:55.889Z,55.03
2022-08-17T14:32:25.438Z,55.38
2022-08-17T14:34:52.489Z,55.68
2022-08-17T14:37:19.818Z,55.18
2022-08-17T14:39:46.626Z,55.29
2022-08-17T14:42:15.014Z,55.49
2022-08-17T14:44:41.779Z,55.68
2022-08-17T14:47:15.032Z,56.27
2022-08-17T14:49:42.278Z,56.14
2022-08-17T14:52:09.858Z,56.14
2022-08-17T14:54:36.609Z,56.21
2022-08-17T14:57:26.117Z,56.41
2022-08-17T14:59:54.429Z,56.62
2022-08-17T15:02:29.260Z,56.78
2022-08-17T15:05:01.816Z,57.00
2022-08-17T15:07:30.893Z,57.05
2022-08-17T15:10:00.786Z,57.11
2022-08-17T15:12:32.293Z,57.34
2022-08-17T15:15:00.726Z,57.74
2022-08-17T15:17:27.534Z,57.80
2022-08-17T15:20:17.276Z,57.70
2022-08-17T15:22:44.672Z,57.84
2022-08-17T15:25:11.621Z,57.85
2022-08-17T15:27:39.074Z,58.25
2022-08-17T15:30:07.230Z,57.82
2022-08-17T15:32:35.632Z,57.60
2022-08-17T15:35:04.339Z,57.91
2022-08-17T15:37:32.115Z,57.90
2022-08-17T15:40:01.339Z,57.42
2022-08-17T15:42:29.284Z,57.56
2022-08-17T15:44:56.177Z,57.75
2022-08-17T15:47:23.252Z,57.81
2022-08-17T15:49:50.889Z,57.78
2022-08-17T15:52:18.858Z,58.00
2022-08-17T15:54:54.147Z,57.93
2022-08-17T15:57:21.192Z,57.89
2022-08-17T15:59:53.102Z,57.68
2022-08-17T16:03:13.252Z,57.83
2022-08-17T16:05:21.944Z,57.71
2022-08-17T16:07:51.374Z,58.02
2022-08-17T16:10:19.189Z,58.22
2022-08-17T16:12:47.259Z,58.25
2022-08-17T16:15:14.390Z,58.33
2022-08-17T16:17:41.569Z,58.55
2022-08-17T16:20:19.528Z,58.36
2022-08-17T16:22:48.127Z,58.15
2022-08-17T16:25:20.529Z,58.17
2022-08-17T16:27:48.900Z,58.53
2022-08-17T16:30:17.760Z,58.72
2022-08-17T16:32:45.066Z,58.98
2022-08-17T16:35:12.053Z,59.30
2022-08-17T16:37:40.417Z,59.42
2022-08-17T16:40:12.970Z,59.24
2022-08-17T16:42:39.822Z,59.29
2022-08-17T16:45:16.780Z,59.48
2022-08-17T16:47:43.889Z,59.58
2022-08-17T16:50:12.240Z,59.70
2022-08-17T16:52:39.036Z,60.13
2022-08-17T16:55:07.410Z,60.25
2022-08-17T16:57:35.040Z,60.49
2022-08-17T17:02:16.744Z,60.99
2022-08-17T17:04:52.426Z,61.68
2022-08-17T17:07:40.131Z,62.97
2022-08-17T17:10:13.342Z,64.00
2022-08-17T17:13:03.544Z,64.80
2022-08-17T17:15:28.820Z,64.96
2022-08-17T17:17:57.615Z,64.84
2022-08-17T17:20:31.297Z,64.30
2022-08-17T17:23:11.256Z,63.93
2022-08-17T17:25:41.424Z,64.30
2022-08-17T17:28:17.546Z,65.15
2022-08-17T17:30:55.080Z,65.53
2022-08-17T17:33:44.441Z,66.04
2022-08-17T17:36:38.343Z,66.97
2022-08-17T17:39:12.281Z,67.89
2022-08-17T17:41:44.405Z,67.95
2022-08-17T17:44:13.093Z,68.65
2022-08-17T17:46:48.563Z,69.25
2022-08-17T17:49:17.186Z,69.81
2022-08-17T17:52:14.403Z,70.02
2022-08-17T17:55:17.835Z,70.66
2022-08-17T17:57:49.416Z,71.34
2022-08-17T18:00:24.618Z,72.03
2022-08-17T18:02:52.768Z,72.76
2022-08-17T18:05:31.601Z,73.18
2022-08-17T18:08:34.173Z,73.61
2022-08-17T18:11:10.480Z,73.85
2022-08-17T18:13:50.643Z,74.11
2022-08-17T18:16:19.269Z,74.28
2022-08-17T18:18:46.859Z,74.46
2022-08-17T18:21:16.732Z,74.68
2022-08-17T18:23:48.303Z,74.81
2022-08-17T18:26:34.233Z,75.00
2022-08-17T18:29:01.589Z,75.35
2022-08-17T18:31:28.523Z,75.75
2022-08-17T18:34:36.039Z,75.81
2022-08-17T18:37:04.675Z,75.92
2022-08-17T18:39:31.560Z,76.06
2022-08-17T18:41:59.671Z,76.23
2022-08-17T18:44:45.663Z,76.45
2022-08-17T18:47:12.608Z,76.46
2022-08-17T18:49:39.802Z,76.53
2022-08-17T18:52:13.061Z,76.80
2022-08-17T18:54:40.130Z,76.76
2022-08-17T18:57:07.666Z,76.91
2022-08-17T18:59:44.179Z,76.89
2022-08-17T19:02:27.358Z,77.05
2022-08-17T19:05:37.491Z,77.16
2022-08-17T19:08:28.796Z,77.38
2022-08-17T19:11:01.449Z,77.58
2022-08-17T19:13:32.268Z,77.65
2022-08-17T19:16:20.245Z,77.76
2022-08-17T19:18:56.214Z,77.89
2022-08-17T19:21:34.363Z,78.12
2022-08-17T19:24:21.159Z,78.32
2022-08-17T19:27:41.647Z,78.55
2022-08-17T19:30:14.501Z,78.92
2022-08-17T19:32:41.371Z,79.05
2022-08-17T19:35:13.619Z,79.26
2022-08-17T19:37:50.539Z,79.25
2022-08-17T19:40:51.683Z,79.36
2022-08-17T19:44:09.268Z,79.46
2022-08-17T19:47:12.981Z,79.75
2022-08-17T19:50:13.724Z,79.82
2022-08-17T19:52:46.579Z,79.96
2022-08-17T19:55:20.759Z,80.19
2022-08-17T19:57:47.843Z,80.38
2022-08-17T20:00:16.007Z,80.61
2022-08-17T20:03:16.390Z,80.82
2022-08-17T20:06:11.438Z,81.03
2022-08-17T20:08:40.642Z,81.14
2022-08-17T20:11:32.520Z,81.36
2022-08-17T20:14:07.130Z,81.63
2022-08-17T20:16:34.321Z,81.68
2022-08-17T20:19:01.172Z,81.71
2022-08-17T20:21:34.050Z,81.79
2022-08-17T20:24:22.549Z,81.84
2022-08-17T20:26:58.478Z,81.99
2022-08-17T20:29:40.108Z,82.06
2022-08-17T20:32:15.130Z,82.26
2022-08-17T20:34:44.569Z,82.39
2022-08-17T20:37:17.188Z,82.48
2022-08-17T20:40:04.059Z,82.48
2022-08-17T20:42:31.893Z,82.56
2022-08-17T20:45:02.559Z,82.80
2022-08-17T20:47:33.769Z,82.85
2022-08-17T20:50:36.667Z,82.90
2022-08-17T20:53:09.021Z,83.16
2022-08-17T20:55:36.452Z,83.31
2022-08-17T20:58:29.943Z,83.33
2022-08-17T21:00:57.915Z,83.49
2022-08-17T21:03:26.606Z,83.60
2022-08-17T21:06:16.888Z,83.77
2022-08-17T21:08:53.346Z,83.92
2022-08-17T21:12:02.717Z,84.22
2022-08-17T21:14:31.100Z,84.26
2022-08-17T21:17:07.466Z,84.29
2022-08-17T21:19:44.458Z,84.41
2022-08-17T21:22:45.761Z,84.41
2022-08-17T21:25:15.573Z,84.66
2022-08-17T21:28:01.525Z,84.54
2022-08-17T21:30:28.232Z,84.66
2022-08-17T21:33:20.662Z,84.87
2022-08-17T21:35:48.792Z,84.78
2022-08-17T21:38:17.520Z,84.99
2022-08-17T21:40:46.015Z,85.12
2022-08-17T21:43:23.637Z,85.12
2022-08-17T21:46:08.983Z,85.10
2022-08-17T21:48:43.897Z,85.34
2022-08-17T21:51:21.144Z,85.55
2022-08-17T21:53:56.252Z,85.66
2022-08-17T21:56:33.302Z,85.90
2022-08-17T21:59:05.515Z,85.94
2022-08-17T22:01:36.553Z,85.82
2022-08-17T22:04:08.635Z,85.58
2022-08-17T22:06:36.836Z,85.30
2022-08-17T22:09:12.525Z,84.99
2022-08-17T22:12:00.560Z,84.59
2022-08-17T22:14:52.326Z,84.19
2022-08-17T22:17:25.210Z,83.72
2022-08-17T22:20:00.466Z,83.29
2022-08-17T22:22:34.679Z,82.84
2022-08-17T22:25:07.170Z,82.47
2022-08-17T22:27:46.054Z,82.12
2022-08-17T22:30:32.439Z,81.87
2022-08-17T22:32:59.675Z,81.50
2022-08-17T22:35:43.119Z,81.33
2022-08-17T22:38:18.951Z,81.08
2022-08-17T22:40:50.213Z,80.96
2022-08-17T22:43:18.273Z,80.89
2022-08-17T22:45:47.482Z,80.80
2022-08-17T22:48:16.952Z,80.64
2022-08-17T22:50:43.771Z,80.57
2022-08-17T22:53:34.380Z,80.40
2022-08-17T22:56:19.653Z,80.32
2022-08-17T22:59:13.433Z,80.22
2022-08-17T23:01:41.021Z,80.23
2022-08-17T23:04:12.857Z,80.25
2022-08-17T23:06:42.336Z,80.14
2022-08-17T23:09:09.291Z,80.12
2022-08-17T23:11:36.933Z,80.06
2022-08-17T23:14:16.438Z,79.93
2022-08-17T23:16:43.193Z,79.98
2022-08-17T23:19:11.124Z,79.92
2022-08-17T23:21:37.948Z,80.08
2022-08-17T23:24:05.292Z,80.08
2022-08-17T23:26:39.243Z,80.11
2022-08-17T23:29:06.744Z,80.19
2022-08-17T23:31:34.677Z,80.29
2022-08-17T23:34:01.943Z,80.30
2022-08-17T23:36:29.442Z,80.36
2022-08-17T23:38:56.756Z,80.36
2022-08-17T23:41:23.570Z,80.41
2022-08-17T23:43:51.596Z,80.53
2022-08-17T23:46:18.660Z,80.54
2022-08-17T23:48:45.842Z,80.61
2022-08-17T23:51:14.614Z,80.55
2022-08-17T23:53:46.254Z,80.62
2022-08-17T23:56:13.261Z,80.48
2022-08-17T23:58:42.196Z,80.34
